Time;durP1;ratioP1;P1;durP2;ratioP2;P2;SDS_P1;SDS_P2;PMS_P1;PMS_P2;Temp;Humidity;BMP_temperature;BMP_pressure;BME280_temperature;BME280_humidity;BME280_pressure;Samples;Min_cycle;Max_cycle;Signal;HPM_P1;HPM_P2
2024/01/23 00:01:11;;;;;;;1.50;0.70;;;10.70;42.20;;;;;;5086954;28;20287;-47
2024/01/23 00:03:37;;;;;;;6.83;1.07;;;10.80;42.00;;;;;;5076080;28;20468;-47
2024/01/23 00:06:03;;;;;;;0.80;0.30;;;10.80;41.90;;;;;;5073044;28;20180;-45
2024/01/23 00:08:29;;;;;;;1.20;0.70;;;10.80;41.60;;;;;;5072757;28;20184;-50
2024/01/23 00:10:56;;;;;;;0.93;0.53;;;10.80;41.70;;;;;;5084315;28;20216;-46
2024/01/23 00:13:22;;;;;;;0.90;0.50;;;10.80;41.60;;;;;;5078210;28;20179;-44
2024/01/23 00:15:48;;;;;;;1.10;0.68;;;10.80;41.40;;;;;;5073166;28;20635;-46
2024/01/23 00:18:14;;;;;;;0.90;0.50;;;10.70;41.50;;;;;;5073044;28;20272;-48
2024/01/23 00:20:40;;;;;;;1.10;0.60;;;10.60;41.60;;;;;;5072736;28;20227;-49
2024/01/23 00:23:06;;;;;;;0.80;0.40;;;10.60;41.60;;;;;;5073021;28;20411;-44
2024/01/23 00:25:32;;;;;;;2.03;0.50;;;10.60;41.50;;;;;;5073019;28;20230;-48
2024/01/23 00:27:58;;;;;;;0.90;0.43;;;10.60;41.40;;;;;;5072867;28;20414;-47
2024/01/23 00:30:23;;;;;;;1.07;0.60;;;10.60;41.50;;;;;;5072379;28;20183;-47
2024/01/23 00:32:49;;;;;;;0.80;0.30;;;10.60;41.50;;;;;;5072985;28;20443;-45
2024/01/23 00:35:15;;;;;;;1.90;0.93;;;10.60;41.30;;;;;;5072852;28;20204;-49
2024/01/23 00:37:41;;;;;;;0.90;0.37;;;10.60;41.20;;;;;;5072647;28;20436;-47
2024/01/23 00:40:10;;;;;;;1.87;1.00;;;10.50;41.30;;;;;;5072431;28;20431;-45
2024/01/23 00:42:35;;;;;;;1.17;1.02;;;10.50;41.30;;;;;;5072145;28;20193;-48
2024/01/23 00:45:01;;;;;;;1.77;0.90;;;10.50;41.30;;;;;;5072614;28;20688;-49
2024/01/23 00:47:27;;;;;;;0.80;0.30;;;10.50;41.30;;;;;;5072549;28;20176;-45
2024/01/23 00:49:53;;;;;;;0.93;0.40;;;10.40;41.20;;;;;;5072343;28;20410;-44
2024/01/23 00:52:19;;;;;;;0.80;0.30;;;10.40;41.30;;;;;;5072107;28;20216;-50
2024/01/23 00:54:45;;;;;;;3.37;0.37;;;10.30;41.70;;;;;;5072300;28;20204;-45
2024/01/23 00:57:10;;;;;;;1.00;0.33;;;10.30;41.60;;;;;;5072144;28;20654;-51
2024/01/23 00:59:36;;;;;;;0.90;0.30;;;10.30;41.70;;;;;;5072444;28;20177;-49
2024/01/23 01:02:03;;;;;;;0.80;0.30;;;10.30;41.70;;;;;;5072100;28;20246;-43
2024/01/23 01:04:28;;;;;;;0.80;0.20;;;10.30;41.70;;;;;;5072307;28;20647;-44
2024/01/23 01:06:54;;;;;;;0.80;0.20;;;10.20;41.90;;;;;;5072143;28;20240;-49
2024/01/23 01:09:20;;;;;;;4.00;0.70;;;10.20;41.70;;;;;;5072101;28;20659;-47
2024/01/23 01:11:46;;;;;;;2.90;0.70;;;10.30;41.50;;;;;;5071578;28;20212;-44
2024/01/23 01:14:11;;;;;;;0.90;0.30;;;10.20;41.30;;;;;;5077491;28;20176;-46
2024/01/23 01:16:37;;;;;;;0.90;0.40;;;10.30;41.50;;;;;;5083530;28;20548;-50
2024/01/23 01:19:03;;;;;;;0.80;0.30;;;10.30;41.30;;;;;;5071835;28;20256;-45
2024/01/23 01:21:29;;;;;;;0.80;0.30;;;10.20;41.30;;;;;;5071859;28;20320;-45
2024/01/23 01:23:55;;;;;;;0.90;0.47;;;10.20;41.40;;;;;;5071803;28;20679;-48
2024/01/23 01:26:21;;;;;;;0.80;0.20;;;10.20;41.30;;;;;;5071855;28;20173;-46
2024/01/23 01:28:46;;;;;;;1.07;0.50;;;10.10;41.70;;;;;;5071856;28;20169;-44
2024/01/23 01:31:12;;;;;;;2.17;1.13;;;10.20;41.50;;;;;;5085125;28;20332;-49
2024/01/23 01:33:38;;;;;;;0.80;0.30;;;10.30;41.30;;;;;;5074946;28;20177;-44
2024/01/23 01:36:04;;;;;;;0.90;0.50;;;10.40;41.20;;;;;;5071936;28;20706;-50
2024/01/23 01:38:30;;;;;;;0.90;0.35;;;10.40;40.90;;;;;;5071792;28;20643;-49
2024/01/23 01:40:58;;;;;;;0.80;0.30;;;10.40;40.70;;;;;;5071421;28;20273;-44
2024/01/23 01:43:27;;;;;;;2.00;0.60;;;10.40;41.00;;;;;;5071932;28;20181;-44
2024/01/23 01:46:28;;;;;;;0.80;0.30;;;10.40;40.80;;;;;;5071839;28;20216;-48
2024/01/23 01:48:55;;;;;;;3.03;0.52;;;10.50;40.80;;;;;;5071749;28;20173;-44
2024/01/23 01:51:24;;;;;;;0.80;0.30;;;10.40;41.00;;;;;;5086004;28;20219;-46
2024/01/23 01:53:50;;;;;;;0.90;0.38;;;10.40;41.00;;;;;;5081477;28;20169;-51
2024/01/23 01:56:20;;;;;;;0.90;0.50;;;10.50;40.90;;;;;;5071676;28;20223;-44
2024/01/23 01:58:47;;;;;;;7.80;0.73;;;10.50;40.80;;;;;;5071647;28;20205;-47
2024/01/23 02:01:13;;;;;;;1.00;0.50;;;10.50;40.60;;;;;;5071435;28;20200;-45
2024/01/23 02:03:39;;;;;;;0.88;0.38;;;10.60;40.60;;;;;;5072106;28;20180;-43
2024/01/23 02:06:07;;;;;;;0.90;0.43;;;10.60;40.40;;;;;;5087834;28;20187;-48
2024/01/23 02:08:36;;;;;;;0.80;0.20;;;10.60;40.40;;;;;;5071824;28;20411;-48
2024/01/23 02:11:02;;;;;;;0.95;0.43;;;10.60;40.40;;;;;;5071310;28;20262;-46
2024/01/23 02:13:28;;;;;;;0.80;0.40;;;10.50;40.80;;;;;;5071569;28;20230;-45
2024/01/23 02:15:54;;;;;;;2.22;1.77;;;10.50;40.80;;;;;;5071528;28;20208;-46
2024/01/23 02:18:20;;;;;;;1.10;0.40;;;10.50;40.80;;;;;;5086353;28;20226;-45
2024/01/23 02:20:46;;;;;;;0.80;0.23;;;10.50;40.80;;;;;;5074309;28;20197;-44
2024/01/23 02:23:15;;;;;;;1.00;0.60;;;10.60;40.70;;;;;;5072327;28;20411;-50
2024/01/23 02:25:42;;;;;;;0.80;0.20;;;10.60;40.50;;;;;;5072363;28;20407;-48
2024/01/23 02:28:09;;;;;;;0.80;0.20;;;10.60;40.40;;;;;;5071907;28;20192;-46
2024/01/23 02:30:35;;;;;;;0.95;0.60;;;10.60;40.20;;;;;;5072697;28;20327;-46
2024/01/23 02:33:05;;;;;;;0.80;0.20;;;10.60;40.20;;;;;;5075166;28;20260;-47
2024/01/23 02:35:32;;;;;;;5.30;1.38;;;10.70;40.40;;;;;;5075087;28;20642;-45
2024/01/23 02:37:58;;;;;;;1.00;0.70;;;10.70;40.20;;;;;;5074943;28;20272;-47
2024/01/23 02:40:24;;;;;;;2.03;0.60;;;10.60;40.20;;;;;;5074451;28;20185;-50
2024/01/23 02:42:50;;;;;;;2.08;1.08;;;10.50;40.50;;;;;;5074792;28;20188;-44
2024/01/23 02:45:16;;;;;;;0.80;0.40;;;10.60;40.40;;;;;;5074873;28;20173;-48
2024/01/23 02:47:41;;;;;;;0.80;0.27;;;10.60;40.40;;;;;;5074759;28;20415;-44
2024/01/23 02:50:08;;;;;;;1.37;0.87;;;10.50;40.50;;;;;;5074838;28;20403;-45
2024/01/23 02:52:34;;;;;;;0.90;0.40;;;10.50;40.70;;;;;;5073388;28;20201;-51
2024/01/23 02:55:00;;;;;;;0.80;0.28;;;10.50;40.70;;;;;;5091432;28;20181;-49
2024/01/23 02:57:26;;;;;;;1.02;0.60;;;10.60;40.60;;;;;;5074656;28;20512;-46
2024/01/23 02:59:53;;;;;;;0.80;0.30;;;10.70;40.40;;;;;;5074476;28;20681;-45
2024/01/23 03:02:22;;;;;;;1.08;0.47;;;10.60;40.20;;;;;;5088491;28;20192;-47
2024/01/23 03:04:49;;;;;;;0.80;0.22;;;10.70;40.30;;;;;;5075016;28;20178;-46
2024/01/23 03:07:15;;;;;;;1.33;0.93;;;10.70;40.20;;;;;;5074499;28;20208;-47
2024/01/23 03:09:41;;;;;;;0.80;0.30;;;10.60;40.20;;;;;;5074420;28;20188;-49
2024/01/23 03:12:22;;;;;;;1.20;0.70;;;10.70;40.30;;;;;;5074117;28;20205;-44
2024/01/23 03:14:49;;;;;;;1.42;0.50;;;10.70;40.20;;;;;;5084026;28;20234;-50
2024/01/23 03:17:16;;;;;;;0.80;0.30;;;10.80;39.80;;;;;;5080828;28;20218;-50
2024/01/23 03:19:42;;;;;;;0.80;0.20;;;10.60;40.20;;;;;;5074228;28;20183;-43
2024/01/23 03:22:09;;;;;;;1.00;0.50;;;10.60;40.20;;;;;;5086714;28;20902;-49
2024/01/23 03:24:38;;;;;;;0.88;0.30;;;10.60;40.40;;;;;;5077798;28;20543;-49
2024/01/23 03:27:07;;;;;;;0.80;0.30;;;10.70;40.30;;;;;;5074077;28;20177;-45
2024/01/23 03:29:41;;;;;;;0.90;0.45;;;10.60;40.70;;;;;;5074228;28;20176;-45
2024/01/23 03:32:07;;;;;;;0.88;0.40;;;10.60;41.70;;;;;;5086112;28;20212;-49
2024/01/23 03:34:33;;;;;;;0.90;0.50;;;10.40;43.00;;;;;;5094278;28;20176;-46
2024/01/23 03:37:02;;;;;;;0.80;0.30;;;10.30;43.30;;;;;;5093969;28;20176;-46
2024/01/23 03:39:28;;;;;;;0.80;0.30;;;10.20;43.20;;;;;;5093078;28;20179;-47
2024/01/23 03:41:54;;;;;;;1.10;0.93;;;10.00;43.30;;;;;;5074246;28;20224;-44
2024/01/23 03:44:24;;;;;;;0.80;0.30;;;9.80;44.10;;;;;;5073956;28;20184;-46
2024/01/23 03:46:51;;;;;;;0.80;0.30;;;9.40;48.80;;;;;;5083821;28;20558;-48
2024/01/23 03:49:17;;;;;;;0.80;0.30;;;9.20;49.30;;;;;;5079933;28;20179;-46
2024/01/23 03:51:44;;;;;;;1.10;0.50;;;8.90;49.80;;;;;;5073074;28;20205;-44
2024/01/23 03:54:09;;;;;;;0.90;0.40;;;8.80;49.70;;;;;;5073502;28;20502;-50
2024/01/23 03:56:35;;;;;;;1.00;0.60;;;8.90;50.00;;;;;;5081776;28;20701;-44
2024/01/23 03:59:01;;;;;;;1.47;0.87;;;9.00;49.50;;;;;;5082254;28;20196;-46
2024/01/23 04:01:27;;;;;;;0.80;0.40;;;9.00;49.40;;;;;;5073247;28;20431;-47
2024/01/23 04:03:52;;;;;;;0.80;0.30;;;9.10;49.10;;;;;;5073252;28;20185;-46
2024/01/23 04:06:18;;;;;;;0.90;0.40;;;9.20;49.00;;;;;;5073325;28;20584;-43
2024/01/23 04:08:44;;;;;;;0.90;0.40;;;9.20;48.60;;;;;;5073240;28;20176;-44
2024/01/23 04:11:09;;;;;;;0.80;0.30;;;9.30;48.40;;;;;;5073118;28;20204;-46
2024/01/23 04:13:36;;;;;;;0.80;0.30;;;9.30;48.40;;;;;;5073251;28;20175;-46
2024/01/23 04:16:04;;;;;;;0.85;0.43;;;9.40;48.60;;;;;;5072983;28;20643;-44
2024/01/23 04:18:30;;;;;;;2.38;1.02;;;9.30;48.50;;;;;;5073084;28;20181;-47
2024/01/23 04:20:56;;;;;;;0.80;0.27;;;9.40;48.30;;;;;;5072674;28;20586;-48
2024/01/23 04:23:22;;;;;;;0.80;0.30;;;9.50;48.20;;;;;;5073048;28;20176;-45
2024/01/23 04:25:47;;;;;;;0.98;0.60;;;9.50;48.70;;;;;;5073172;28;20490;-49
2024/01/23 04:28:14;;;;;;;0.80;0.30;;;9.40;49.00;;;;;;5072833;28;20651;-48
2024/01/23 04:30:39;;;;;;;1.00;0.55;;;9.20;49.30;;;;;;5072321;28;20451;-46
2024/01/23 04:33:06;;;;;;;0.80;0.20;;;9.20;49.10;;;;;;5072900;28;20184;-45
2024/01/23 04:35:32;;;;;;;0.90;0.38;;;9.10;49.40;;;;;;5072574;28;20184;-44
2024/01/23 04:37:58;;;;;;;1.00;0.70;;;9.00;49.50;;;;;;5089315;28;20213;-49
2024/01/23 04:40:24;;;;;;;0.90;0.40;;;9.10;49.60;;;;;;5072504;28;20223;-47
2024/01/23 04:42:50;;;;;;;0.90;0.40;;;9.10;49.70;;;;;;5072744;28;20474;-47
2024/01/23 04:45:15;;;;;;;1.00;0.63;;;9.10;49.10;;;;;;5072524;28;20226;-50
2024/01/23 04:47:41;;;;;;;0.80;0.30;;;9.20;49.00;;;;;;5072737;28;20238;-43
2024/01/23 04:50:08;;;;;;;0.80;0.20;;;9.30;48.50;;;;;;5072637;28;20238;-46
2024/01/23 04:52:34;;;;;;;0.90;0.47;;;9.40;48.30;;;;;;5079184;28;20269;-49
2024/01/23 04:54:59;;;;;;;0.90;0.40;;;9.50;47.70;;;;;;5081415;28;20176;-44
2024/01/23 04:57:31;;;;;;;0.80;0.20;;;9.50;47.40;;;;;;5072496;28;20411;-44
2024/01/23 04:59:58;;;;;;;0.80;0.22;;;9.50;47.10;;;;;;5083260;28;20704;-50
2024/01/23 05:02:24;;;;;;;1.02;0.70;;;9.50;47.10;;;;;;5077711;28;20425;-44
2024/01/23 05:04:49;;;;;;;0.80;0.30;;;9.50;47.10;;;;;;5072139;28;20782;-46
2024/01/23 05:07:15;;;;;;;1.00;0.70;;;9.50;46.70;;;;;;5072058;28;20823;-47
2024/01/23 05:09:41;;;;;;;0.80;0.20;;;9.60;46.60;;;;;;5070874;28;20583;-46
2024/01/23 05:12:07;;;;;;;9.02;1.00;;;9.60;46.30;;;;;;5071798;28;20558;-44
2024/01/23 05:14:33;;;;;;;0.90;0.43;;;9.60;46.40;;;;;;5079681;28;20187;-49
2024/01/23 05:16:58;;;;;;;0.80;0.20;;;9.50;46.60;;;;;;5081132;28;20180;-50
2024/01/23 05:19:24;;;;;;;0.80;0.20;;;9.40;46.80;;;;;;5086831;28;20179;-46
2024/01/23 05:21:50;;;;;;;0.90;0.40;;;9.40;46.90;;;;;;5073572;28;20204;-43
2024/01/23 05:24:17;;;;;;;0.93;0.30;;;9.30;47.10;;;;;;5077211;28;20176;-48
2024/01/23 05:26:43;;;;;;;0.80;0.30;;;9.40;46.90;;;;;;5083194;28;20539;-44
2024/01/23 05:29:08;;;;;;;0.80;0.30;;;9.40;46.80;;;;;;5071972;28;20177;-47
2024/01/23 05:31:34;;;;;;;1.10;0.40;;;9.40;46.60;;;;;;5071593;28;20201;-49
2024/01/23 05:34:00;;;;;;;0.90;0.40;;;9.30;46.80;;;;;;5071886;28;20248;-46
2024/01/23 05:36:25;;;;;;;0.80;0.30;;;9.20;46.90;;;;;;5071781;28;20170;-44
2024/01/23 05:38:51;;;;;;;0.80;0.40;;;9.30;46.70;;;;;;5072117;28;20173;-49
2024/01/23 05:41:17;;;;;;;4.00;0.77;;;9.40;46.40;;;;;;5071441;28;20690;-50
2024/01/23 05:43:43;;;;;;;1.20;0.85;;;9.40;46.20;;;;;;5071825;28;20260;-44
2024/01/23 05:46:09;;;;;;;0.97;0.50;;;9.50;46.10;;;;;;5071721;28;20212;-47
2024/01/23 05:48:35;;;;;;;0.80;0.20;;;9.50;45.90;;;;;;5071738;28;20176;-49
2024/01/23 05:51:00;;;;;;;0.80;0.20;;;9.50;46.00;;;;;;5071115;28;20458;-45
2024/01/23 05:53:26;;;;;;;3.93;1.33;;;9.50;45.90;;;;;;5078191;28;20513;-49
2024/01/23 05:55:53;;;;;;;0.80;0.30;;;9.50;46.10;;;;;;5081650;28;20219;-46
2024/01/23 05:58:18;;;;;;;0.80;0.35;;;9.50;45.90;;;;;;5071784;28;21060;-44
2024/01/23 06:00:44;;;;;;;0.80;0.23;;;9.50;45.90;;;;;;5071337;28;20197;-44
2024/01/23 06:03:10;;;;;;;0.80;0.30;;;9.50;45.90;;;;;;5080030;28;20412;-45
2024/01/23 06:05:36;;;;;;;0.80;0.20;;;9.50;45.80;;;;;;5073311;28;20173;-47
2024/01/23 06:08:03;;;;;;;0.90;0.40;;;9.60;45.60;;;;;;5075643;28;20703;-46
2024/01/23 06:10:28;;;;;;;0.80;0.20;;;9.60;45.40;;;;;;5075134;28;20678;-45
2024/01/23 06:12:54;;;;;;;0.80;0.20;;;9.70;45.40;;;;;;5075642;28;20177;-47
2024/01/23 06:15:20;;;;;;;0.80;0.30;;;9.70;45.30;;;;;;5075407;28;20265;-46
2024/01/23 06:17:46;;;;;;;0.80;0.30;;;9.60;45.20;;;;;;5075388;28;20169;-48
2024/01/23 06:20:12;;;;;;;0.80;0.30;;;9.70;45.30;;;;;;5075236;28;20166;-49
2024/01/23 06:22:40;;;;;;;0.90;0.57;;;9.60;45.50;;;;;;5074981;28;20956;-44
2024/01/23 06:25:08;;;;;;;0.90;0.50;;;9.40;46.20;;;;;;5075627;28;20181;-46
2024/01/23 06:27:35;;;;;;;0.80;0.30;;;9.30;46.70;;;;;;5075225;28;20261;-51
2024/01/23 06:30:00;;;;;;;4.00;0.73;;;9.30;46.70;;;;;;5075162;28;20216;-45
2024/01/23 06:32:26;;;;;;;0.80;0.23;;;9.30;46.30;;;;;;5074843;28;20666;-48
2024/01/23 06:34:52;;;;;;;0.80;0.20;;;9.30;46.10;;;;;;5074979;28;20173;-47
2024/01/23 06:37:21;;;;;;;0.90;0.40;;;9.30;46.30;;;;;;5075335;28;20490;-47
2024/01/23 06:39:47;;;;;;;0.90;0.50;;;9.30;46.40;;;;;;5074972;28;20518;-44
2024/01/23 06:42:13;;;;;;;1.00;0.40;;;9.30;46.30;;;;;;5087774;28;20230;-50
2024/01/23 06:44:39;;;;;;;0.80;0.30;;;9.20;46.30;;;;;;5078600;28;20209;-45
2024/01/23 06:47:05;;;;;;;0.80;0.30;;;9.20;46.50;;;;;;5074732;28;20639;-45
2024/01/23 06:49:31;;;;;;;0.90;0.40;;;9.30;46.40;;;;;;5075123;28;20621;-50
2024/01/23 06:51:57;;;;;;;0.90;0.50;;;9.20;46.30;;;;;;5073187;28;20208;-45
2024/01/23 06:54:23;;;;;;;0.80;0.20;;;9.10;46.40;;;;;;5075106;28;20496;-43
2024/01/23 06:56:49;;;;;;;0.80;0.30;;;9.10;46.60;;;;;;5075785;28;20413;-50
2024/01/23 06:59:17;;;;;;;0.90;0.40;;;9.10;46.40;;;;;;5075440;28;20407;-49
2024/01/23 07:01:43;;;;;;;0.80;0.30;;;9.10;46.20;;;;;;5075514;28;21008;-46
2024/01/23 07:04:09;;;;;;;0.90;0.35;;;9.10;45.90;;;;;;5074717;28;20185;-48
2024/01/23 07:06:35;;;;;;;0.90;0.53;;;9.10;46.10;;;;;;5074730;28;20638;-46
2024/01/23 07:09:01;;;;;;;0.80;0.40;;;9.10;46.00;;;;;;5074557;28;20936;-48
2024/01/23 07:11:27;;;;;;;0.80;0.30;;;9.10;45.90;;;;;;5074300;28;20451;-45
2024/01/23 07:13:53;;;;;;;1.88;0.68;;;9.10;45.80;;;;;;5074300;28;20454;-45
2024/01/23 07:16:19;;;;;;;0.80;0.20;;;9.20;45.50;;;;;;5073635;28;20185;-49
2024/01/23 07:18:45;;;;;;;0.80;0.20;;;9.10;45.70;;;;;;5074265;28;20493;-44
2024/01/23 07:21:11;;;;;;;0.83;0.30;;;9.20;45.60;;;;;;5073881;28;20196;-44
2024/01/23 07:23:37;;;;;;;0.80;0.20;;;9.20;45.40;;;;;;5074273;28;20494;-48
2024/01/23 07:26:03;;;;;;;0.80;0.20;;;9.30;45.30;;;;;;5077139;28;20896;-45
2024/01/23 07:28:29;;;;;;;0.80;0.30;;;9.20;45.20;;;;;;5087562;28;20189;-44
2024/01/23 07:30:55;;;;;;;1.00;0.40;;;9.10;45.50;;;;;;5072278;28;20886;-52
2024/01/23 07:33:21;;;;;;;0.80;0.20;;;9.10;45.60;;;;;;5073794;28;20921;-43
2024/01/23 07:35:47;;;;;;;0.80;0.20;;;9.10;45.70;;;;;;5073655;28;20212;-50
2024/01/23 07:38:12;;;;;;;1.40;0.60;;;9.00;45.90;;;;;;5073699;28;20173;-47
2024/01/23 07:40:38;;;;;;;0.80;0.20;;;9.00;45.80;;;;;;5073298;28;20455;-46
2024/01/23 07:43:05;;;;;;;0.90;0.40;;;9.10;45.80;;;;;;5073578;28;20419;-45
2024/01/23 07:45:31;;;;;;;1.20;0.52;;;9.00;46.00;;;;;;5073363;28;20443;-47
2024/01/23 07:47:57;;;;;;;0.80;0.27;;;9.10;45.80;;;;;;5073747;28;20205;-46
2024/01/23 07:50:22;;;;;;;0.90;0.40;;;9.20;45.50;;;;;;5073643;28;20173;-46
2024/01/23 07:52:48;;;;;;;0.80;0.30;;;9.30;45.40;;;;;;5073572;28;20192;-48
2024/01/23 07:55:16;;;;;;;1.00;0.53;;;9.30;45.30;;;;;;5073516;28;20177;-51
2024/01/23 07:57:41;;;;;;;1.00;0.40;;;9.40;45.10;;;;;;5073541;28;20499;-45
2024/01/23 08:00:07;;;;;;;0.90;0.30;;;9.40;45.00;;;;;;5073463;28;20252;-48
2024/01/23 08:02:33;;;;;;;0.87;0.43;;;9.50;45.00;;;;;;5073435;28;20204;-48
2024/01/23 08:05:00;;;;;;;1.37;0.70;;;9.50;44.90;;;;;;5073294;28;20925;-45
2024/01/23 08:07:26;;;;;;;0.80;0.38;;;9.50;44.90;;;;;;5087835;28;20418;-50
2024/01/23 08:09:52;;;;;;;0.80;0.30;;;9.50;44.90;;;;;;5075402;28;20185;-47
2024/01/23 08:12:18;;;;;;;0.90;0.30;;;9.40;45.00;;;;;;5073017;28;20458;-44
2024/01/23 08:14:44;;;;;;;0.85;0.35;;;9.30;45.30;;;;;;5073063;28;20407;-50
2024/01/23 08:17:13;;;;;;;0.85;0.32;;;9.30;45.30;;;;;;5073043;28;20181;-50
2024/01/23 08:19:40;;;;;;;3.85;0.77;;;9.20;45.50;;;;;;5073275;28;20170;-44
2024/01/23 08:22:06;;;;;;;1.02;0.60;;;9.20;45.60;;;;;;5072665;28;20244;-49
2024/01/23 08:24:32;;;;;;;1.20;0.70;;;9.30;45.20;;;;;;5073008;28;20177;-50
2024/01/23 08:26:58;;;;;;;0.80;0.30;;;9.20;45.50;;;;;;5072727;28;20544;-45
2024/01/23 08:29:24;;;;;;;1.13;0.57;;;9.30;45.50;;;;;;5072154;28;20188;-45
2024/01/23 08:31:50;;;;;;;0.80;0.20;;;9.30;45.40;;;;;;5072296;28;20988;-51
2024/01/23 08:34:15;;;;;;;0.90;0.50;;;9.40;45.20;;;;;;5072929;28;20180;-50
2024/01/23 08:36:41;;;;;;;0.90;0.53;;;9.40;44.90;;;;;;5072744;28;20264;-46
2024/01/23 08:39:08;;;;;;;1.10;0.50;;;10.50;45.20;;;;;;5084755;28;20180;-48
2024/01/23 08:41:34;;;;;;;1.02;0.50;;;9.50;44.60;;;;;;5092610;28;20456;-47
2024/01/23 08:43:59;;;;;;;0.90;0.30;;;9.50;44.60;;;;;;5092671;28;20187;-44
2024/01/23 08:46:25;;;;;;;0.80;0.30;;;9.30;44.90;;;;;;5093142;28;20180;-50
2024/01/23 08:48:51;;;;;;;1.40;0.63;;;9.30;44.90;;;;;;5092890;28;20465;-43
2024/01/23 08:51:18;;;;;;;0.80;0.30;;;9.30;45.70;;;;;;5092372;28;20764;-48
2024/01/23 08:53:43;;;;;;;0.95;0.43;;;9.40;44.70;;;;;;5091348;28;20936;-47
2024/01/23 08:56:09;;;;;;;0.80;0.20;;;9.40;44.70;;;;;;5092689;28;20183;-42
2024/01/23 08:58:35;;;;;;;0.90;0.40;;;9.40;44.80;;;;;;5092631;28;20411;-50
2024/01/23 09:01:01;;;;;;;1.00;0.40;;;9.30;45.00;;;;;;5092181;28;20224;-48
2024/01/23 09:03:27;;;;;;;0.80;0.30;;;9.40;44.80;;;;;;5092477;28;20183;-45
2024/01/23 09:05:53;;;;;;;0.80;0.20;;;9.30;45.00;;;;;;5074387;28;20185;-44
2024/01/23 09:08:18;;;;;;;0.90;0.40;;;9.30;45.00;;;;;;5072174;28;20430;-48
2024/01/23 09:10:44;;;;;;;1.10;0.93;;;9.30;44.90;;;;;;5071865;28;20201;-46
2024/01/23 09:13:10;;;;;;;0.90;0.40;;;9.40;44.60;;;;;;5072215;28;20204;-47
2024/01/23 09:15:36;;;;;;;1.30;1.00;;;9.40;44.20;;;;;;5072084;28;20180;-49
2024/01/23 09:18:02;;;;;;;1.40;0.63;;;9.50;43.90;;;;;;5072028;28;20177;-50
2024/01/23 09:20:30;;;;;;;1.08;0.32;;;9.50;43.90;;;;;;5071909;28;20230;-47
2024/01/23 09:22:56;;;;;;;1.15;0.73;;;9.50;44.00;;;;;;5071950;28;20176;-50
2024/01/23 09:25:21;;;;;;;0.80;0.23;;;9.50;44.00;;;;;;5072045;28;20182;-44
2024/01/23 09:27:48;;;;;;;0.80;0.30;;;9.60;43.60;;;;;;5080871;28;20406;-45
2024/01/23 09:30:15;;;;;;;0.80;0.30;;;9.50;44.10;;;;;;5079344;28;20554;-46
2024/01/23 09:32:40;;;;;;;1.20;1.10;;;9.60;43.60;;;;;;5071690;28;20208;-52
2024/01/23 09:35:07;;;;;;;0.90;0.40;;;9.60;43.10;;;;;;5071851;28;20173;-47
2024/01/23 09:37:33;;;;;;;0.93;0.55;;;9.60;43.50;;;;;;5078922;28;20188;-51
2024/01/23 09:40:00;;;;;;;1.30;0.60;;;9.70;43.40;;;;;;5081060;28;20211;-45
2024/01/23 09:42:27;;;;;;;0.90;0.30;;;9.70;42.80;;;;;;5071640;28;20436;-47
2024/01/23 09:44:55;;;;;;;0.80;0.22;;;9.80;42.50;;;;;;5071656;28;20207;-46
2024/01/23 09:47:23;;;;;;;2.47;0.95;;;9.60;42.30;;;;;;5071798;28;20188;-52
2024/01/23 09:49:49;;;;;;;1.00;0.60;;;9.70;42.90;;;;;;5070485;28;20183;-50
2024/01/23 09:52:17;;;;;;;0.80;0.30;;;9.70;42.50;;;;;;5071374;28;20299;-50
2024/01/23 09:54:43;;;;;;;0.80;0.30;;;9.70;43.00;;;;;;5071597;28;20188;-52
2024/01/23 09:57:08;;;;;;;0.90;0.40;;;9.60;42.80;;;;;;5071848;28;20173;-46
2024/01/23 09:59:34;;;;;;;0.80;0.20;;;9.70;43.20;;;;;;5087019;28;20417;-46
2024/01/23 10:02:01;;;;;;;0.90;0.38;;;9.80;42.60;;;;;;5072302;28;20463;-43
2024/01/23 10:04:29;;;;;;;0.80;0.30;;;9.80;42.10;;;;;;5071616;28;20184;-45
2024/01/23 10:06:54;;;;;;;0.80;0.30;;;9.70;42.30;;;;;;5071458;28;20555;-51
2024/01/23 10:09:20;;;;;;;0.80;0.30;;;9.60;42.60;;;;;;5071598;28;20184;-45
2024/01/23 10:11:46;;;;;;;3.00;1.67;;;9.70;42.40;;;;;;5071216;28;20562;-52
2024/01/23 10:14:15;;;;;;;1.10;0.33;;;9.70;42.40;;;;;;5071387;28;20165;-49
2024/01/23 10:16:41;;;;;;;0.80;0.30;;;9.70;42.30;;;;;;5071572;28;20777;-46
2024/01/23 10:19:13;;;;;;;0.80;0.33;;;9.90;43.10;;;;;;5071337;28;20264;-46
2024/01/23 10:21:40;;;;;;;1.10;0.40;;;9.70;42.00;;;;;;5071154;28;20489;-51
2024/01/23 10:24:07;;;;;;;0.88;0.30;;;9.60;42.30;;;;;;5071527;28;20181;-44
2024/01/23 10:26:33;;;;;;;0.98;0.50;;;9.60;42.40;;;;;;5071556;28;20173;-47
2024/01/23 10:29:01;;;;;;;0.80;0.40;;;9.60;42.50;;;;;;5071256;28;20189;-46
2024/01/23 10:31:27;;;;;;;0.90;0.47;;;9.60;42.50;;;;;;5071068;28;20451;-46
2024/01/23 10:33:53;;;;;;;46.43;1.23;;;9.90;42.20;;;;;;5071270;28;20230;-52
2024/01/23 10:36:20;;;;;;;0.80;0.30;;;9.70;42.00;;;;;;5071137;28;20408;-53
2024/01/23 10:38:50;;;;;;;2.08;0.63;;;9.70;42.30;;;;;;5071552;28;20168;-45
2024/01/23 10:41:18;;;;;;;1.00;0.85;;;9.80;41.90;;;;;;5071076;28;20220;-43
2024/01/23 10:43:46;;;;;;;0.90;0.38;;;9.80;41.50;;;;;;5071121;28;20169;-52
2024/01/23 10:46:12;;;;;;;0.90;0.43;;;9.70;41.80;;;;;;5071301;28;20178;-50
2024/01/23 10:48:38;;;;;;;2.60;0.75;;;9.80;41.80;;;;;;5071219;28;20244;-45
2024/01/23 10:51:18;;;;;;;1.10;0.50;;;9.70;42.30;;;;;;5071428;28;20220;-45
2024/01/23 10:54:14;;;;;;;0.82;0.38;;;9.80;42.20;;;;;;5074945;28;20177;-48
2024/01/23 10:56:45;;;;;;;2.25;1.20;;;9.80;41.60;;;;;;5091009;28;20254;-43
2024/01/23 10:59:25;;;;;;;1.00;0.75;;;9.80;41.50;;;;;;5074579;28;20177;-46
2024/01/23 11:01:55;;;;;;;1.08;0.70;;;9.90;41.50;;;;;;5074320;28;20885;-47
2024/01/23 11:04:20;;;;;;;0.80;0.35;;;9.90;41.20;;;;;;5074715;28;20255;-46
2024/01/23 11:07:02;;;;;;;1.10;0.67;;;9.90;41.00;;;;;;5083189;28;20222;-48
2024/01/23 11:09:58;;;;;;;1.23;0.85;;;9.90;41.20;;;;;;5080623;28;20173;-44
2024/01/23 11:12:48;;;;;;;3.92;0.63;;;9.90;41.00;;;;;;5074249;28;20201;-42
2024/01/23 11:15:16;;;;;;;1.90;1.30;;;9.80;41.10;;;;;;5074377;28;20177;-51
2024/01/23 11:17:42;;;;;;;1.70;1.20;;;9.90;40.90;;;;;;5074463;28;20181;-44
2024/01/23 11:20:14;;;;;;;0.90;0.57;;;10.10;40.80;;;;;;5074146;28;20300;-50
2024/01/23 11:22:40;;;;;;;0.80;0.40;;;10.20;39.80;;;;;;5074371;28;20292;-44
2024/01/23 11:25:09;;;;;;;0.80;0.20;;;10.20;39.90;;;;;;5075083;28;20340;-48
2024/01/23 11:27:38;;;;;;;1.15;1.00;;;10.10;39.90;;;;;;5074702;28;20251;-46
2024/01/23 11:30:04;;;;;;;3.75;2.33;;;10.10;40.00;;;;;;5075393;28;20180;-43
2024/01/23 11:32:30;;;;;;;1.20;0.98;;;10.10;40.10;;;;;;5074835;28;20212;-48
2024/01/23 11:35:11;;;;;;;0.90;0.40;;;10.00;40.10;;;;;;5073903;28;20185;-51
2024/01/23 11:37:49;;;;;;;1.30;0.60;;;10.00;40.40;;;;;;5074034;28;20905;-45
2024/01/23 11:40:27;;;;;;;3.70;1.00;;;10.00;39.90;;;;;;5086311;28;20207;-50
2024/01/23 11:42:54;;;;;;;0.90;0.50;;;10.10;39.90;;;;;;5093892;28;20200;-51
2024/01/23 11:45:23;;;;;;;1.00;0.73;;;10.00;40.00;;;;;;5093830;28;20211;-45
2024/01/23 11:48:02;;;;;;;0.80;0.43;;;10.00;40.00;;;;;;5094096;28;20185;-51
2024/01/23 11:50:29;;;;;;;6.65;1.38;;;10.00;40.00;;;;;;5093834;28;20255;-44
2024/01/23 11:52:59;;;;;;;1.27;0.75;;;9.90;40.10;;;;;;5093689;28;20208;-42
2024/01/23 11:55:26;;;;;;;1.02;0.65;;;10.00;40.10;;;;;;5093725;28;20172;-52
2024/01/23 11:57:53;;;;;;;0.90;0.30;;;10.10;39.80;;;;;;5093653;28;20263;-48
2024/01/23 12:00:20;;;;;;;2.47;0.70;;;10.20;39.30;;;;;;5093594;28;20176;-45
2024/01/23 12:02:47;;;;;;;1.27;0.45;;;10.20;39.50;;;;;;5093472;28;20180;-48
2024/01/23 12:05:14;;;;;;;2.22;0.73;;;10.30;39.50;;;;;;5093503;28;20267;-48
2024/01/23 12:07:40;;;;;;;1.00;0.75;;;10.30;39.30;;;;;;5093620;28;20183;-48
2024/01/23 12:10:11;;;;;;;1.00;0.50;;;10.30;39.50;;;;;;5093390;28;20192;-45
2024/01/23 12:12:38;;;;;;;1.45;0.90;;;10.40;39.20;;;;;;5093208;28;20200;-49
2024/01/23 12:15:04;;;;;;;2.83;0.70;;;10.30;39.40;;;;;;5093188;28;20654;-45
2024/01/23 12:17:34;;;;;;;1.33;1.20;;;10.20;39.50;;;;;;5093521;28;20188;-46
2024/01/23 12:20:10;;;;;;;68.57;1.85;;;10.30;39.80;;;;;;5093255;28;20211;-49
2024/01/23 12:22:39;;;;;;;0.80;0.30;;;10.40;39.20;;;;;;5093045;28;20192;-44
2024/01/23 12:25:06;;;;;;;1.52;0.38;;;10.40;39.20;;;;;;5093100;28;20524;-45
2024/01/23 12:27:32;;;;;;;0.90;0.50;;;10.40;39.00;;;;;;5093254;28;20180;-46
2024/01/23 12:29:59;;;;;;;0.85;0.40;;;10.40;39.50;;;;;;5092955;28;20646;-50
2024/01/23 12:32:30;;;;;;;7.50;1.30;;;10.40;39.20;;;;;;5092759;28;20650;-46
2024/01/23 12:34:57;;;;;;;1.20;0.57;;;10.50;39.20;;;;;;5092909;28;20172;-50
2024/01/23 12:37:31;;;;;;;0.80;0.30;;;10.50;39.00;;;;;;5087899;28;20180;-51
2024/01/23 12:40:05;;;;;;;1.65;0.75;;;10.50;39.50;;;;;;5072701;28;20219;-46
2024/01/23 12:42:32;;;;;;;1.33;1.05;;;10.50;38.80;;;;;;5072862;28;20208;-49
2024/01/23 12:44:57;;;;;;;1.00;0.65;;;10.40;39.20;;;;;;5072603;28;20179;-50
2024/01/23 12:47:23;;;;;;;1.07;0.57;;;10.40;39.20;;;;;;5072578;28;20546;-45
2024/01/23 12:49:49;;;;;;;2.47;0.73;;;10.50;39.10;;;;;;5072766;28;20265;-48
2024/01/23 12:52:17;;;;;;;0.90;0.50;;;10.60;38.80;;;;;;5088424;28;20196;-53